Time;durP1;ratioP1;P1;durP2;ratioP2;P2;SDS_P1;SDS_P2;PMS_P1;PMS_P2;Temp;Humidity;BMP_temperature;BMP_pressure;BME280_temperature;BME280_humidity;BME280_pressure;Samples;Min_cycle;Max_cycle;Signal;HPM_P1;HPM_P2
2022/05/11 00:01:14;;;;;;;6.50;5.10;;;;;;;7.60;89.82;97689.19;109960;1250;69229;-71
2022/05/11 00:03:44;;;;;;;7.10;5.00;;;;;;;7.59;88.18;97685.61;109906;1250;59750;-68
2022/05/11 00:06:13;;;;;;;7.00;4.70;;;;;;;7.60;86.47;97683.12;110170;1247;59816;-69
2022/05/11 00:08:43;;;;;;;5.30;4.20;;;;;;;7.58;85.15;97684.30;109774;1251;71514;-68
2022/05/11 00:11:15;;;;;;;7.00;4.80;;;;;;;7.54;85.74;97684.33;109718;1250;67940;-68
2022/05/11 00:13:45;;;;;;;7.40;4.70;;;;;;;7.50;86.74;97687.85;109891;1250;68839;-68
2022/05/11 00:16:15;;;;;;;8.20;5.60;;;;;;;7.45;87.44;97688.63;110184;1249;59709;-69
2022/05/11 00:18:46;;;;;;;6.20;4.70;;;;;;;7.42;88.13;97689.84;110047;1248;59729;-67
2022/05/11 00:21:15;;;;;;;;;;;;;;;7.39;88.34;97694.86;109767;1251;70767;-69
2022/05/11 00:23:46;;;;;;;7.90;5.70;;;;;;;7.38;89.38;97696.16;110011;1250;68371;-68
2022/05/11 00:26:16;;;;;;;7.50;5.30;;;;;;;7.39;91.45;97688.09;109859;1250;69487;-71
2022/05/11 00:28:46;;;;;;;;;;;;;;;7.39;91.42;97687.94;110174;1250;59678;-68
2022/05/11 00:31:16;;;;;;;;;;;;;;;7.38;91.30;97682.26;110181;1249;59728;-65
2022/05/11 00:33:47;;;;;;;;;;;;;;;7.34;87.25;97684.05;109812;1250;71514;-68
2022/05/11 00:36:16;;;;;;;14.90;5.30;;;;;;;7.30;85.48;97681.53;109841;1251;68639;-68
2022/05/11 00:38:47;;;;;;;;;;;;;;;7.24;85.31;97678.51;110180;1249;68696;-68
2022/05/11 00:41:18;;;;;;;4.90;3.10;;;;;;;7.21;85.92;97681.12;110102;1250;59685;-69
2022/05/11 00:44:01;;;;;;;3.70;2.90;;;;;;;7.18;86.08;97678.91;110183;1250;59752;-68
2022/05/11 00:46:43;;;;;;;5.40;4.10;;;;;;;7.14;86.19;97677.83;110183;1250;70923;-67
2022/05/11 00:49:34;;;;;;;4.50;3.60;;;;;;;7.13;88.06;97677.77;109869;1250;67831;-68
2022/05/11 00:52:10;;;;;;;6.10;4.80;;;;;;;7.11;89.03;97677.33;109852;1249;68675;-68
2022/05/11 00:54:45;;;;;;;6.80;5.20;;;;;;;7.11;91.20;97678.73;110096;1249;60012;-68
2022/05/11 00:57:22;;;;;;;10.40;5.10;;;;;;;7.09;90.99;97675.35;109956;1251;59827;-68
2022/05/11 00:59:53;;;;;;;5.80;4.40;;;;;;;7.09;89.91;97678.84;109949;1251;70595;-68
2022/05/11 01:02:25;;;;;;;6.50;4.70;;;;;;;7.07;89.49;97673.77;109888;1251;67822;-68
2022/05/11 01:05:00;;;;;;;7.60;4.90;;;;;;;7.04;90.94;97674.76;109846;1251;68617;-67
2022/05/11 01:07:31;;;;;;;7.50;5.60;;;;;;;7.00;91.03;97677.23;109806;1251;59734;-68
2022/05/11 01:10:05;;;;;;;7.60;5.60;;;;;;;6.98;91.46;97675.98;109927;1251;59593;-69
2022/05/11 01:12:40;;;;;;;8.10;5.20;;;;;;;6.96;91.62;97680.73;110048;1250;71714;-68
2022/05/11 01:15:14;;;;;;;6.00;3.60;;;;;;;6.93;90.90;97682.46;110050;1250;68566;-70
2022/05/11 01:17:44;;;;;;;7.60;5.80;;;;;;;6.91;90.78;97689.69;110043;1250;69460;-69
2022/05/11 01:20:21;;;;;;;9.90;5.90;;;;;;;6.88;91.45;97690.16;109870;1251;59679;-69
2022/05/11 01:23:07;;;;;;;7.20;4.70;;;;;;;6.87;91.54;97691.64;110187;1249;59732;-68
2022/05/11 01:25:39;;;;;;;5.20;3.50;;;;;;;6.84;91.03;97689.89;110157;1249;69710;-68
2022/05/11 01:28:12;;;;;;;8.20;6.10;;;;;;;6.82;90.89;97690.52;109981;1251;68668;-68
2022/05/11 01:30:48;;;;;;;10.00;5.80;;;;;;;6.76;89.76;97692.55;109992;1250;69476;-68
2022/05/11 01:33:23;;;;;;;12.40;7.60;;;;;;;6.69;89.01;97691.39;109832;1251;59702;-70
2022/05/11 01:36:09;;;;;;;15.10;8.00;;;;;;;6.60;89.10;97691.49;110038;1248;59730;-70
2022/05/11 01:38:43;;;;;;;10.00;6.10;;;;;;;6.48;89.08;97692.46;110195;1250;70934;-68
2022/05/11 01:41:25;;;;;;;9.20;5.70;;;;;;;6.41;90.13;97691.95;109965;1250;68546;-70
2022/05/11 01:43:58;;;;;;;10.20;6.90;;;;;;;6.38;90.92;97691.62;110188;1250;69238;-68
2022/05/11 01:46:27;;;;;;;8.30;5.50;;;;;;;6.36;91.70;97692.36;110199;1250;59709;-69
2022/05/11 01:48:57;;;;;;;10.50;6.20;;;;;;;6.36;91.89;97686.70;109786;1250;59689;-68
2022/05/11 01:51:27;;;;;;;7.60;5.00;;;;;;;6.35;92.58;97683.46;110015;1250;71550;-70
2022/05/11 01:53:58;;;;;;;10.30;5.80;;;;;;;6.33;92.53;97680.10;109921;1251;68064;-68
2022/05/11 01:56:28;;;;;;;;;;;;;;;6.32;92.70;97678.75;110086;1250;69227;-68
2022/05/11 01:58:58;;;;;;;12.50;6.40;;;;;;;6.33;93.33;97677.85;109998;1250;59741;-69
2022/05/11 02:01:30;;;;;;;14.40;7.10;;;;;;;6.34;93.61;97684.73;110138;1248;59750;-69
2022/05/11 02:04:00;;;;;;;9.10;6.20;;;;;;;6.33;93.09;97684.60;110195;1250;71499;-69
2022/05/11 02:09:19;;;;;;;8.40;5.70;;;;;;;6.36;93.39;97679.59;109850;1250;68671;-68
2022/05/11 02:11:50;;;;;;;8.80;5.30;;;;;;;6.37;92.99;97674.33;110020;1250;59686;-68
2022/05/11 02:14:20;;;;;;;12.60;6.00;;;;;;;6.39;92.23;97677.16;110204;1249;59731;-68
2022/05/11 02:16:49;;;;;;;19.30;6.80;;;;;;;6.40;92.56;97683.69;110074;1250;70829;-70
2022/05/11 02:19:20;;;;;;;13.10;7.40;;;;;;;6.42;94.19;97684.48;109795;1251;68423;-71
2022/05/11 02:21:51;;;;;;;9.20;5.80;;;;;;;6.43;94.21;97680.10;110067;1250;69111;-67
2022/05/11 02:24:20;;;;;;;9.50;5.10;;;;;;;6.46;94.19;97680.13;110163;1249;59649;-67
2022/05/11 02:26:50;;;;;;;16.20;7.60;;;;;;;6.49;94.71;97683.77;109812;1250;59685;-69
2022/05/11 02:29:23;;;;;;;10.30;5.40;;;;;;;6.52;95.17;97679.95;109956;1250;71359;-68
2022/05/11 02:31:52;;;;;;;12.80;4.90;;;;;;;6.54;92.78;97678.63;109909;1251;68583;-69
2022/05/11 02:37:10;;;;;;;18.80;8.70;;;;;;;6.64;94.18;97688.52;109855;1250;59814;-66
2022/05/11 02:39:40;;;;;;;10.40;6.80;;;;;;;6.66;94.09;97684.81;109821;1250;59723;-71
2022/05/11 02:42:10;;;;;;;11.20;7.20;;;;;;;6.68;93.75;97685.21;109710;1251;71450;-67
2022/05/11 02:44:41;;;;;;;10.80;6.70;;;;;;;6.68;93.63;97684.70;109993;1250;66983;-69
2022/05/11 02:47:12;;;;;;;11.10;5.70;;;;;;;6.67;93.21;97687.17;110028;1250;68649;-68
2022/05/11 02:49:44;;;;;;;12.60;6.50;;;;;;;6.67;93.25;97681.83;109800;1251;59720;-68
2022/05/11 02:52:15;;;;;;;11.30;5.90;;;;;;;6.67;92.82;97685.06;110158;1249;59644;-68
2022/05/11 02:54:46;;;;;;;13.30;7.80;;;;;;;6.70;93.71;97687.35;110167;1250;71505;-68
2022/05/11 02:57:19;;;;;;;9.70;5.30;;;;;;;6.70;94.22;97692.02;109985;1250;68574;-68
2022/05/11 02:59:50;;;;;;;14.50;7.00;;;;;;;6.70;94.51;97696.68;109763;1251;69528;-67
2022/05/11 03:02:22;;;;;;;12.10;7.80;;;;;;;6.71;95.44;97695.79;109959;1250;59664;-68
2022/05/11 03:04:51;;;;;;;24.30;7.80;;;;;;;6.70;95.11;97693.76;110172;1250;59677;-68
2022/05/11 03:07:21;;;;;;;12.90;7.70;;;;;;;6.68;94.14;97691.61;110159;1249;71525;-68
2022/05/11 03:09:52;;;;;;;13.90;7.70;;;;;;;6.64;93.59;97694.04;110186;1250;68518;-69
2022/05/11 03:12:22;;;;;;;15.00;8.20;;;;;;;6.63;93.66;97694.45;110175;1249;68675;-68
2022/05/11 03:14:54;;;;;;;10.20;6.70;;;;;;;6.63;93.94;97697.06;109885;1250;59700;-69
2022/05/11 03:17:25;;;;;;;13.80;6.30;;;;;;;6.63;94.01;97697.36;109998;1250;59723;-70
2022/05/11 03:19:55;;;;;;;26.30;9.50;;;;;;;6.66;93.92;97696.05;110050;1250;71592;-69
2022/05/11 03:22:24;;;;;;;24.40;9.30;;;;;;;6.66;94.13;97696.94;109842;1250;67619;-69
2022/05/11 03:24:55;;;;;;;12.20;6.10;;;;;;;6.66;94.00;97698.30;109849;1250;69379;-68
2022/05/11 03:27:25;;;;;;;12.20;6.90;;;;;;;6.69;94.86;97705.41;109943;1250;59670;-68
2022/05/11 03:29:55;;;;;;;;;;;;;;;6.72;95.07;97706.10;110196;1249;59690;-68
2022/05/11 03:35:13;;;;;;;8.80;5.00;;;;;;;6.81;95.42;97716.21;109873;1250;68076;-71
2022/05/11 03:37:43;;;;;;;13.60;7.90;;;;;;;6.86;95.17;97712.49;109801;1250;69431;-69
2022/05/11 03:40:13;;;;;;;12.30;6.90;;;;;;;6.91;95.15;97716.56;109927;1250;60053;-68
2022/05/11 03:42:42;;;;;;;13.40;7.10;;;;;;;6.96;94.96;97721.12;109963;1250;59700;-69
2022/05/11 03:45:17;;;;;;;11.70;7.30;;;;;;;7.02;94.71;97727.75;109950;1250;71624;-70
2022/05/11 03:47:47;;;;;;;10.80;6.20;;;;;;;7.08;95.00;97730.01;110045;1250;68604;-69
2022/05/11 03:50:22;;;;;;;12.60;7.70;;;;;;;7.13;94.45;97730.41;109891;1248;69115;-67
2022/05/11 03:52:53;;;;;;;10.60;6.40;;;;;;;7.22;94.24;97729.61;109902;1250;59725;-69
2022/05/11 03:55:25;;;;;;;9.80;6.50;;;;;;;7.30;94.33;97733.15;110028;1250;59689;-70
2022/05/11 03:57:54;;;;;;;11.00;7.60;;;;;;;7.36;94.04;97733.86;110214;1249;71865;-69
2022/05/11 04:00:24;;;;;;;12.40;8.00;;;;;;;7.42;93.44;97736.85;109772;1251;68646;-69
2022/05/11 04:02:56;;;;;;;8.10;5.00;;;;;;;7.46;93.02;97737.14;109842;1250;69513;-67
2022/05/11 04:05:26;;;;;;;9.80;6.50;;;;;;;7.52;92.63;97737.50;109793;1250;59763;-68
2022/05/11 04:07:58;;;;;;;9.70;6.50;;;;;;;7.57;92.47;97736.52;109898;1250;59746;-68
2022/05/11 04:10:28;;;;;;;12.50;6.90;;;;;;;7.58;92.64;97739.06;109993;1249;71556;-68
2022/05/11 04:13:00;;;;;;;6.30;4.70;;;;;;;7.62;92.33;97740.39;110010;1250;67825;-67
2022/05/11 04:15:31;;;;;;;9.70;5.60;;;;;;;7.66;92.20;97744.88;109840;1251;69326;-68
2022/05/11 04:18:00;;;;;;;12.00;6.50;;;;;;;7.70;92.06;97747.98;109959;1250;59705;-68
2022/05/11 04:20:29;;;;;;;12.20;6.40;;;;;;;7.71;91.77;97749.29;109956;1250;59667;-68
2022/05/11 04:22:59;;;;;;;6.50;4.70;;;;;;;7.71;91.73;97745.98;109758;1250;71658;-70
2022/05/11 04:25:28;;;;;;;22.40;7.70;;;;;;;7.75;91.88;97743.19;109824;1250;68377;-68
2022/05/11 04:27:57;;;;;;;8.50;5.40;;;;;;;7.79;91.92;97746.40;109982;1250;69440;-67
2022/05/11 04:30:31;;;;;;;12.80;5.60;;;;;;;7.86;91.75;97746.70;109924;1250;59703;-68
2022/05/11 04:33:01;;;;;;;7.00;5.00;;;;;;;7.88;91.73;97744.70;109765;1250;59684;-70
2022/05/11 04:35:30;;;;;;;11.00;5.90;;;;;;;7.94;91.26;97741.73;109765;1250;71511;-68
2022/05/11 04:38:01;;;;;;;11.60;6.40;;;;;;;7.97;91.79;97742.42;109783;1250;67540;-68
2022/05/11 04:40:31;;;;;;;14.50;5.40;;;;;;;8.09;91.95;97745.05;109817;1250;68652;-68
2022/05/11 04:43:10;;;;;;;14.10;5.50;;;;;;;8.19;91.60;97744.98;109823;1250;59698;-67
2022/05/11 04:45:42;;;;;;;4.80;3.30;;;;;;;8.23;91.99;97744.60;109847;1251;59584;-68
2022/05/11 04:48:13;;;;;;;19.00;5.30;;;;;;;8.35;91.86;97748.44;109973;1250;70754;-69
2022/05/11 04:50:45;;;;;;;8.70;5.40;;;;;;;8.44;91.39;97748.42;109901;1250;68518;-69
2022/05/11 04:53:16;;;;;;;10.60;5.00;;;;;;;8.48;91.56;97753.39;109850;1251;68506;-69
2022/05/11 04:55:46;;;;;;;8.60;5.40;;;;;;;8.59;91.54;97751.88;109720;1250;59726;-68
2022/05/11 04:58:16;;;;;;;14.60;4.70;;;;;;;8.68;91.28;97755.52;109843;1252;59689;-68
2022/05/11 05:00:46;;;;;;;18.70;6.20;;;;;;;8.78;90.74;97752.16;110011;1250;71577;-68
2022/05/11 05:03:15;;;;;;;14.50;6.50;;;;;;;8.85;90.62;97753.78;109869;1251;66815;-67
2022/05/11 05:05:44;;;;;;;26.10;6.50;;;;;;;8.91;91.26;97753.61;109846;1250;70269;-68
2022/05/11 05:08:13;;;;;;;17.50;6.20;;;;;;;8.99;90.78;97755.92;109763;1250;59649;-67
2022/05/11 05:10:43;;;;;;;10.10;5.30;;;;;;;9.07;90.40;97756.44;109727;1250;59713;-68
2022/05/11 05:13:12;;;;;;;7.40;4.70;;;;;;;9.06;90.48;97754.45;109756;1250;71579;-69
2022/05/11 05:15:42;;;;;;;5.90;4.50;;;;;;;9.12;90.14;97759.10;109940;1250;68401;-68
2022/05/11 05:18:11;;;;;;;7.90;5.80;;;;;;;9.31;89.83;97765.92;109887;1251;69232;-67
2022/05/11 05:20:40;;;;;;;8.20;4.40;;;;;;;9.43;89.38;97765.69;109890;1250;59671;-67
2022/05/11 05:23:20;;;;;;;8.80;4.90;;;;;;;9.49;89.21;97766.04;109779;1250;59704;-66
2022/05/11 05:25:57;;;;;;;40.00;7.20;;;;;;;9.50;89.23;97771.02;109692;1251;70869;-69
2022/05/11 05:31:17;;;;;;;9.90;5.60;;;;;;;9.56;89.22;97772.00;109900;1249;68665;-69
2022/05/11 05:33:49;;;;;;;6.40;4.60;;;;;;;9.72;88.82;97771.72;109718;1251;59711;-69
2022/05/11 05:36:18;;;;;;;6.50;5.10;;;;;;;9.93;88.50;97774.00;109930;1250;59640;-68
2022/05/11 05:38:47;;;;;;;4.90;3.40;;;;;;;10.14;87.51;97778.42;109943;1250;71599;-68
2022/05/11 05:41:16;;;;;;;6.00;4.20;;;;;;;10.19;86.39;97778.27;109873;1250;68555;-69
2022/05/11 05:43:45;;;;;;;6.60;5.20;;;;;;;10.29;86.11;97781.69;109781;1253;68656;-70
2022/05/11 05:46:18;;;;;;;5.10;4.10;;;;;;;10.32;85.50;97781.66;109754;1250;59822;-67
2022/05/11 05:48:47;;;;;;;5.70;5.10;;;;;;;10.45;85.10;97782.31;109945;1250;59697;-69
2022/05/11 05:51:18;;;;;;;6.10;4.90;;;;;;;10.60;85.23;97782.70;109978;1250;71535;-68
2022/05/11 05:53:47;;;;;;;5.00;3.90;;;;;;;10.54;85.02;97783.16;109781;1251;68727;-67
2022/05/11 05:56:16;;;;;;;4.80;3.70;;;;;;;10.72;84.40;97783.80;109963;1250;68678;-69
2022/05/11 05:58:45;;;;;;;6.50;3.40;;;;;;;10.76;83.69;97781.48;109792;1250;59730;-68
2022/05/11 06:01:19;;;;;;;8.20;5.70;;;;;;;10.81;83.48;97785.89;109814;1250;59734;-70
2022/05/11 06:03:48;;;;;;;4.90;3.90;;;;;;;10.86;83.51;97787.78;109751;1250;71593;-69
2022/05/11 06:06:19;;;;;;;7.70;6.30;;;;;;;11.07;83.33;97788.41;109967;1250;68392;-68
2022/05/11 06:08:49;;;;;;;7.20;5.90;;;;;;;11.11;82.86;97785.70;109771;1251;68663;-69
2022/05/11 06:11:18;;;;;;;7.00;5.00;;;;;;;11.22;82.20;97784.96;109706;1251;59748;-69
2022/05/11 06:13:47;;;;;;;6.80;4.40;;;;;;;11.28;81.64;97787.49;109948;1250;59722;-69
2022/05/11 06:16:16;;;;;;;8.60;6.00;;;;;;;11.48;81.80;97791.16;109964;1250;70784;-68
2022/05/11 06:18:47;;;;;;;8.20;7.10;;;;;;;11.54;80.74;97793.85;109941;1250;68591;-68
2022/05/11 06:21:16;;;;;;;;;;;;;;;11.54;80.76;97797.72;109923;1250;68742;-68
2022/05/11 06:23:47;;;;;;;9.20;7.30;;;;;;;11.36;81.06;97795.64;109827;1250;59806;-69
2022/05/11 06:26:16;;;;;;;8.10;6.40;;;;;;;11.37;81.29;97796.64;109933;1250;59683;-68
2022/05/11 06:28:46;;;;;;;5.70;4.30;;;;;;;11.58;81.14;97796.05;109804;1250;70606;-69
2022/05/11 06:31:19;;;;;;;8.00;6.20;;;;;;;11.74;80.37;97801.31;109821;1250;68703;-69
2022/05/11 06:33:51;;;;;;;7.50;5.90;;;;;;;11.69;79.73;97801.86;109696;1253;68657;-67
2022/05/11 06:36:23;;;;;;;9.10;7.10;;;;;;;11.86;79.52;97805.75;109926;1250;59701;-68
2022/05/11 06:38:54;;;;;;;6.90;6.10;;;;;;;11.97;78.82;97810.41;109954;1250;59663;-65
2022/05/11 06:41:26;;;;;;;6.50;5.40;;;;;;;12.18;79.28;97813.09;109678;1250;71415;-67
2022/05/11 06:43:55;;;;;;;6.90;5.20;;;;;;;12.38;77.82;97813.48;109977;1250;68726;-67
2022/05/11 06:46:24;;;;;;;7.90;6.20;;;;;;;12.58;76.92;97807.49;109948;1250;69393;-69
2022/05/11 06:48:54;;;;;;;8.90;6.80;;;;;;;12.82;76.17;97807.61;109970;1250;59708;-71
2022/05/11 06:51:23;;;;;;;9.20;7.90;;;;;;;12.93;75.57;97805.16;109769;1250;59743;-66
2022/05/11 06:59:33;;;;;;;10.70;7.70;;;;;;;12.91;75.35;97805.34;109893;1250;69487;-69
2022/05/11 07:02:04;;;;;;;7.40;6.70;;;;;;;13.04;74.99;97803.64;109989;1250;59690;-73
2022/05/11 07:04:35;;;;;;;6.80;5.20;;;;;;;13.25;74.40;97801.38;110137;1250;59746;-71
2022/05/11 07:07:06;;;;;;;6.80;5.20;;;;;;;13.59;73.13;97804.45;110200;1249;70823;-71
2022/05/11 07:09:35;;;;;;;6.90;5.90;;;;;;;13.82;71.65;97801.11;109932;1250;67960;-69
2022/05/11 07:12:17;;;;;;;8.20;7.30;;;;;;;14.15;71.51;97802.62;109996;1250;68710;-69
2022/05/11 07:14:53;;;;;;;8.10;7.10;;;;;;;14.09;70.54;97798.71;109797;1250;59956;-68
2022/05/11 07:17:40;;;;;;;7.20;6.20;;;;;;;14.38;70.26;97801.86;109893;1250;59775;-69
2022/05/11 07:20:29;;;;;;;6.10;5.40;;;;;;;14.71;70.68;97801.57;110119;1250;71569;-69
2022/05/11 07:22:58;;;;;;;7.40;6.70;;;;;;;15.16;68.04;97796.23;110006;1250;67873;-68
2022/05/11 07:25:28;;;;;;;9.20;7.20;;;;;;;15.24;65.98;97799.14;110145;1248;69386;-67
2022/05/11 07:27:59;;;;;;;6.20;5.00;;;;;;;14.89;66.83;97796.20;110004;1249;59714;-66
2022/05/11 07:30:32;;;;;;;8.00;7.00;;;;;;;15.00;66.94;97798.05;109841;1248;59723;-67
2022/05/11 07:33:08;;;;;;;9.80;7.30;;;;;;;14.66;67.51;97802.12;110010;1250;71661;-68
2022/05/11 07:35:38;;;;;;;7.80;6.70;;;;;;;15.03;66.77;97801.51;110138;1249;67530;-71
2022/05/11 07:38:10;;;;;;;8.20;7.40;;;;;;;15.69;65.72;97802.66;110095;1248;68696;-67
2022/05/11 07:40:41;;;;;;;10.10;7.60;;;;;;;16.14;64.72;97805.05;110120;1248;59691;-68
2022/05/11 07:43:11;;;;;;;7.90;6.50;;;;;;;16.47;62.67;97802.11;109944;1250;59667;-68
2022/05/11 07:45:41;;;;;;;7.60;6.80;;;;;;;17.24;62.35;97798.38;110186;1249;71574;-68
2022/05/11 07:48:11;;;;;;;7.10;6.10;;;;;;;17.90;59.56;97803.18;110228;1249;66666;-68
2022/05/11 07:50:40;;;;;;;7.10;6.30;;;;;;;18.30;57.88;97801.83;110090;1250;69467;-68
2022/05/11 07:53:09;;;;;;;6.50;5.60;;;;;;;18.58;55.79;97803.39;109977;1250;59732;-67
2022/05/11 07:55:39;;;;;;;5.70;5.20;;;;;;;19.01;56.06;97798.23;109914;1250;59747;-69
2022/05/11 08:00:59;;;;;;;7.00;5.90;;;;;;;19.73;52.70;97800.52;110028;1249;67964;-68
2022/05/11 08:03:28;;;;;;;6.90;6.20;;;;;;;19.76;53.09;97798.32;109935;1250;69463;-68
2022/05/11 08:05:57;;;;;;;7.40;5.90;;;;;;;20.00;52.04;97799.94;109923;1250;59678;-69
2022/05/11 08:08:29;;;;;;;6.40;5.30;;;;;;;20.13;51.85;97795.36;110000;1250;59664;-68
2022/05/11 08:10:58;;;;;;;7.50;6.40;;;;;;;20.42;51.17;97791.89;109970;1249;71597;-68
2022/05/11 08:13:30;;;;;;;8.50;7.00;;;;;;;20.48;50.90;97790.95;110198;1249;68712;-68
2022/05/11 08:16:00;;;;;;;6.70;5.70;;;;;;;20.48;49.56;97790.84;109890;1250;69328;-68
2022/05/11 08:18:28;;;;;;;;;;;;;;;20.60;49.96;97786.59;109824;1250;59639;-69
2022/05/11 08:20:57;;;;;;;8.10;6.50;;;;;;;20.79;49.41;97784.56;110163;1249;59660;-69
2022/05/11 08:23:28;;;;;;;9.20;7.20;;;;;;;21.09;49.12;97783.39;110155;1249;71626;-67
2022/05/11 08:25:57;;;;;;;7.10;6.40;;;;;;;21.21;48.16;97781.73;110195;1249;67827;-70
2022/05/11 08:28:26;;;;;;;9.00;6.40;;;;;;;21.14;48.59;97776.45;109892;1249;68649;-69
2022/05/11 08:33:43;;;;;;;7.90;6.30;;;;;;;21.17;47.18;97775.02;110173;1249;59704;-68
2022/05/11 08:36:32;;;;;;;8.90;8.10;;;;;;;21.44;48.31;97771.17;109968;1249;70906;-70
2022/05/11 08:39:02;;;;;;;8.30;7.30;;;;;;;21.78;46.48;97773.40;110201;1249;68016;-70
2022/05/11 08:41:45;;;;;;;7.10;6.40;;;;;;;21.92;46.06;97766.98;110193;1249;69583;-69
2022/05/11 08:44:17;;;;;;;9.10;7.70;;;;;;;21.79;47.00;97762.46;110173;1248;59678;-70
2022/05/11 08:47:16;;;;;;;7.60;6.10;;;;;;;22.22;46.08;97755.55;109752;1250;60055;-68
2022/05/11 08:49:56;;;;;;;7.10;6.40;;;;;;;22.42;45.50;97758.12;110137;1248;71584;-70
2022/05/11 08:52:52;;;;;;;11.20;8.00;;;;;;;22.60;44.73;97760.07;109889;1249;67817;-68
2022/05/11 08:55:33;;;;;;;7.10;6.40;;;;;;;22.69;44.28;97755.42;109914;1250;69794;-69
2022/05/11 08:58:11;;;;;;;7.00;5.80;;;;;;;22.15;44.70;97757.86;109877;1248;59754;-69
2022/05/11 09:00:44;;;;;;;6.00;5.40;;;;;;;21.83;44.39;97755.98;110191;1249;59685;-69
2022/05/11 09:03:22;;;;;;;7.80;6.30;;;;;;;21.98;44.40;97759.11;110032;1249;71384;-69
2022/05/11 09:05:51;;;;;;;7.20;6.50;;;;;;;22.18;44.32;97760.51;110170;1249;68701;-70
2022/05/11 09:08:20;;;;;;;7.20;5.90;;;;;;;22.65;43.47;97763.92;110190;1249;68647;-70
2022/05/11 09:10:49;;;;;;;7.00;5.50;;;;;;;22.89;43.12;97762.08;110136;1249;59700;-70
2022/05/11 09:13:20;;;;;;;6.90;4.90;;;;;;;23.34;42.55;97754.16;109835;1250;59690;-70
2022/05/11 09:15:55;;;;;;;5.70;4.50;;;;;;;23.55;41.37;97754.31;110001;1250;70936;-69
2022/05/11 09:18:40;;;;;;;7.60;6.20;;;;;;;23.57;41.77;97758.00;110226;1249;67793;-68
2022/05/11 09:21:32;;;;;;;7.00;5.40;;;;;;;23.51;40.97;97753.10;110207;1249;69444;-71
2022/05/11 09:24:04;;;;;;;5.90;5.30;;;;;;;23.26;41.39;97752.77;109764;1250;60180;-69
2022/05/11 09:26:44;;;;;;;5.30;4.80;;;;;;;23.27;41.68;97747.04;110165;1249;60181;-70
2022/05/11 09:29:13;;;;;;;7.40;6.60;;;;;;;23.62;41.04;97751.66;110122;1250;71762;-69
2022/05/11 09:31:45;;;;;;;5.90;4.70;;;;;;;23.88;40.01;97750.52;110130;1250;68600;-70
2022/05/11 09:34:33;;;;;;;7.80;7.00;;;;;;;24.30;39.18;97742.02;109926;1250;68513;-68
2022/05/11 09:37:22;;;;;;;7.20;6.40;;;;;;;24.33;38.50;97743.91;110154;1250;59749;-71
2022/05/11 09:39:55;;;;;;;10.60;9.50;;;;;;;24.31;39.29;97742.62;109957;1250;59743;-70
2022/05/11 09:42:30;;;;;;;9.30;8.40;;;;;;;24.07;38.39;97749.54;109963;1249;70813;-69
2022/05/11 09:45:01;;;;;;;8.90;8.00;;;;;;;23.57;39.26;97747.15;109982;1250;68585;-71
2022/05/11 09:47:35;;;;;;;6.90;6.20;;;;;;;23.50;38.87;97744.64;110161;1250;68627;-69
2022/05/11 09:50:22;;;;;;;5.40;4.60;;;;;;;23.69;38.19;97749.34;110020;1250;59737;-70
2022/05/11 09:52:57;;;;;;;6.70;6.00;;;;;;;23.44;36.67;97743.13;109842;1250;59789;-69
2022/05/11 09:55:31;;;;;;;7.20;6.10;;;;;;;24.25;36.78;97749.82;109923;1250;71687;-70
2022/05/11 09:58:06;;;;;;;7.90;6.50;;;;;;;24.96;36.21;97744.19;109221;1250;713595;-70
2022/05/11 10:00:41;;;;;;;7.70;5.60;;;;;;;25.34;36.62;97753.38;109674;1250;68470;-70
2022/05/11 10:03:18;;;;;;;7.90;6.20;;;;;;;25.76;35.03;97752.25;109955;1250;59681;-70
2022/05/11 10:05:52;;;;;;;9.50;8.60;;;;;;;25.76;34.67;97752.30;109908;1250;59687;-70
2022/05/11 10:08:31;;;;;;;6.40;4.90;;;;;;;25.97;34.37;97750.12;109948;1250;72180;-71
2022/05/11 10:11:06;;;;;;;7.10;6.40;;;;;;;26.18;34.49;97751.29;109992;1250;68594;-71
2022/05/11 10:13:47;;;;;;;7.30;6.40;;;;;;;26.14;33.51;97751.09;109878;1249;69566;-72
2022/05/11 10:22:35;;;;;;;6.90;5.50;;;;;;;26.25;33.72;97742.17;109782;1250;71635;-71
2022/05/11 10:25:42;;;;;;;6.60;5.40;;;;;;;26.01;34.34;97740.98;109929;1250;68367;-72
2022/05/11 10:28:22;;;;;;;6.70;5.10;;;;;;;25.76;35.40;97735.86;109869;1250;69473;-71
2022/05/11 10:30:52;;;;;;;6.90;5.50;;;;;;;25.65;35.21;97728.69;109953;1250;59748;-71
2022/05/11 10:33:34;;;;;;;5.80;4.90;;;;;;;25.39;35.33;97728.98;109938;1250;60184;-70
2022/05/11 10:36:09;;;;;;;5.30;4.60;;;;;;;24.31;36.77;97731.08;109912;1250;71635;-70
2022/05/11 10:38:58;;;;;;;5.20;4.60;;;;;;;24.15;37.03;97724.85;109925;1250;67323;-68
2022/05/11 10:41:59;;;;;;;4.40;3.60;;;;;;;24.76;37.36;97720.33;109875;1250;69294;-70
2022/05/11 10:45:00;;;;;;;6.50;4.50;;;;;;;25.24;35.27;97714.52;109938;1249;59682;-71
2022/05/11 10:47:52;;;;;;;3.90;3.50;;;;;;;25.42;34.18;97710.91;109956;1250;59667;-71
2022/05/11 10:50:24;;;;;;;4.40;3.90;;;;;;;25.28;33.65;97711.73;109841;1250;71548;-71
2022/05/11 10:52:56;;;;;;;4.50;3.80;;;;;;;24.98;33.81;97709.73;109895;1250;67113;-71
2022/05/11 10:55:38;;;;;;;4.30;3.90;;;;;;;24.00;33.30;97718.24;109881;1249;69470;-71
2022/05/11 10:58:27;;;;;;;3.80;3.30;;;;;;;23.56;35.13;97715.92;109924;1250;59579;-70
2022/05/11 11:01:17;;;;;;;4.30;3.50;;;;;;;23.21;36.55;97712.00;109888;1250;59673;-69
2022/05/11 11:04:12;;;;;;;4.70;4.00;;;;;;;24.16;36.87;97715.33;109805;1250;71643;-71
2022/05/11 11:07:16;;;;;;;7.50;4.70;;;;;;;25.07;36.10;97707.66;109910;1250;68567;-71
2022/05/11 11:10:03;;;;;;;5.70;3.60;;;;;;;24.98;35.19;97708.09;109930;1250;68391;-71
2022/05/11 11:12:59;;;;;;;3.50;2.80;;;;;;;25.35;34.62;97703.83;109758;1250;59771;-70
2022/05/11 11:15:32;;;;;;;3.70;3.30;;;;;;;25.97;30.77;97701.54;110020;1250;60102;-71
2022/05/11 11:18:03;;;;;;;3.90;3.40;;;;;;;26.29;30.75;97699.85;109899;1250;70783;-71
2022/05/11 11:20:37;;;;;;;3.70;3.30;;;;;;;26.27;32.00;97701.69;109951;1250;68641;-69
2022/05/11 11:23:22;;;;;;;4.30;2.90;;;;;;;26.69;31.58;97692.84;110052;1250;69428;-70
2022/05/11 11:25:54;;;;;;;3.40;2.80;;;;;;;27.37;31.67;97694.33;109919;1250;59724;-71
2022/05/11 11:28:31;;;;;;;3.20;2.60;;;;;;;27.67;28.67;97689.45;109893;1250;59612;-70
2022/05/11 11:31:00;;;;;;;4.60;2.40;;;;;;;28.38;28.20;97691.95;109793;1250;71634;-71
2022/05/11 11:33:31;;;;;;;3.30;3.00;;;;;;;28.52;25.83;97689.34;109936;1249;68533;-71
2022/05/11 11:36:29;;;;;;;3.10;2.40;;;;;;;28.37;25.55;97686.79;109911;1250;68489;-69
2022/05/11 11:39:04;;;;;;;3.40;2.10;;;;;;;28.24;26.92;97689.56;109975;1250;59680;-70
2022/05/11 11:41:43;;;;;;;3.50;2.60;;;;;;;28.16;26.74;97692.05;109774;1251;59705;-71
2022/05/11 11:44:26;;;;;;;3.60;2.30;;;;;;;27.82;26.30;97686.02;109897;1250;71879;-72
2022/05/11 11:46:59;;;;;;;4.70;3.10;;;;;;;27.79;26.93;97681.77;109938;1250;67741;-71
2022/05/11 11:49:32;;;;;;;3.60;2.50;;;;;;;27.08;27.51;97673.92;109868;1250;68650;-69
2022/05/11 11:52:05;;;;;;;4.40;2.80;;;;;;;26.60;28.27;97676.05;109972;1249;59739;-70
2022/05/11 11:54:38;;;;;;;3.70;2.50;;;;;;;26.02;29.68;97670.70;109955;1250;59670;-71
2022/05/11 11:57:13;;;;;;;5.50;3.30;;;;;;;25.14;29.62;97674.52;109917;1249;71311;-70
2022/05/11 11:59:49;;;;;;;4.40;2.80;;;;;;;25.42;29.97;97669.94;109935;1250;68629;-69
2022/05/11 12:02:42;;;;;;;4.00;2.60;;;;;;;25.89;30.51;97666.71;109982;1250;68245;-72
2022/05/11 12:05:40;;;;;;;3.00;2.30;;;;;;;26.51;29.25;97663.87;109643;1250;59810;-70
2022/05/11 12:16:59;;;;;;;3.30;2.50;;;;;;;27.16;26.15;97640.85;109904;1250;68847;-69
2022/05/11 12:19:37;;;;;;;4.20;3.00;;;;;;;27.31;26.27;97636.02;109763;1250;60118;-69
2022/05/11 12:22:18;;;;;;;4.40;3.00;;;;;;;27.00;26.50;97633.70;109744;1251;59710;-71
2022/05/11 12:25:01;;;;;;;4.20;3.00;;;;;;;26.06;27.74;97634.92;110103;1249;70619;-70
2022/05/11 12:27:34;;;;;;;4.90;3.10;;;;;;;24.88;29.53;97631.20;109997;1250;68603;-70
2022/05/11 12:30:22;;;;;;;5.20;2.80;;;;;;;24.91;28.77;97631.60;109918;1250;68688;-70
2022/05/11 12:32:53;;;;;;;4.40;2.90;;;;;;;25.31;27.65;97630.60;110079;1249;59661;-69
2022/05/11 12:35:32;;;;;;;3.00;2.70;;;;;;;25.23;27.73;97627.34;109888;1250;59767;-70
2022/05/11 12:38:11;;;;;;;3.50;2.60;;;;;;;25.32;27.91;97622.80;110020;1249;70779;-70